首页
METAR-TAF:

METAR-TAF

机场 :

Windom Municipal Airport

Windom, 明尼蘇達州, 美国

纬度: 43-54-48N, 经度: 095-06-34W, 海拔: 430米

当前天气观测

该预报发布于5分钟前的13:36 UTC
风速6节,风向
温度 17°C
湿度 72%
气压 1017 hPa
能見度: 16.1公里
天空无云

METAR: KMWM 181336Z AUTO 35006KT 10SM CLR 17/12 A3002 RMK AO2

时间: 08:41 (13:41 UTC)


TAF: 丢失

超过4000个机场的气象观测和天气预报(METAR&TAF报告)。

可查询的气象台以黄色和红色小点在地图上表示。

将鼠标移到小点上方,可查看气象台名称。

然后点击查看天气观测和预报。

如需切换地图:点击带黑十字的绿色按钮放大地图;点击带横线的绿色按钮缩小地图;或者点击绿色箭头查看邻近地区的地图。


METAR-TAF: